Time;durP1;ratioP1;P1;durP2;ratioP2;P2;SDS_P1;SDS_P2;PMS_P1;PMS_P2;Temp;Humidity;BMP_temperature;BMP_pressure;BME280_temperature;BME280_humidity;BME280_pressure;Samples;Min_cycle;Max_cycle;Signal;HPM_P1;HPM_P2
2022/02/24 00:01:01;;;;;;;;;;;;;;;28.07;55.21;101290.25;4987144;28;69735;-42
2022/02/24 00:03:34;;;;;;;;;;;;;;;28.12;57.17;101298.59;4974808;28;66193;-43
2022/02/24 00:06:03;;;;;;;;;;;;;;;28.19;57.45;101298.66;4964525;28;69193;-43
2022/02/24 00:08:34;;;;;;;;;;;;;;;28.10;57.12;101305.22;4981207;28;66652;-42
2022/02/24 00:11:04;;;;;;;;;;;;;;;28.00;57.44;101311.75;4978965;27;70565;-43
2022/02/24 00:13:34;;;;;;;;;;;;;;;27.87;58.05;101314.31;4982899;28;66558;-41
2022/02/24 00:16:05;;;;;;;;;;;;;;;27.92;58.57;101319.97;4975052;28;69463;-41
2022/02/24 00:18:34;;;;;;;;;;;;;;;27.99;58.88;101326.25;4976885;28;65960;-43
2022/02/24 00:21:06;;;;;;;;;;;;;;;28.07;58.97;101323.44;4973443;28;69546;-42
2022/02/24 00:23:36;;;;;;;;;;;;;;;28.14;60.09;101330.75;4974547;28;66698;-41
2022/02/24 00:26:07;;;;;;;;;;;;;;;28.23;59.48;101330.47;4975684;28;69789;-42
2022/02/24 00:28:37;;;;;;;;;;;;;;;28.14;57.23;101331.63;4976634;28;65994;-40
2022/02/24 00:31:09;;;;;;;;;;;;;;;28.14;57.79;101336.16;4974801;28;69697;-41
2022/02/24 00:33:39;;;;;;;;;;;;;;;28.13;58.86;101338.03;4980487;27;66081;-39
2022/02/24 00:36:10;;;;;;;;;;;;;;;28.19;59.34;101344.50;4965375;28;69262;-39
2022/02/24 00:38:40;;;;;;;;;;;;;;;28.26;59.47;101345.44;4977592;28;65734;-39
2022/02/24 00:41:12;;;;;;;;;;;;;;;28.33;57.93;101345.50;4965957;28;70369;-47
2022/02/24 00:43:42;;;;;;;;;;;;;;;28.40;57.61;101359.91;4976840;28;65916;-40
2022/02/24 00:46:13;;;;;;;;;;;;;;;28.46;58.08;101349.19;4977155;28;71480;-40
2022/02/24 00:48:44;;;;;;;;;;;;;;;28.53;58.50;101360.06;4967328;28;67038;-41
2022/02/24 00:51:14;;;;;;;;;;;;;;;28.60;57.99;101362.81;4971626;28;69847;-40
2022/02/24 00:53:44;;;;;;;;;;;;;;;28.65;57.82;101358.50;4971076;28;66750;-41
2022/02/24 00:56:15;;;;;;;;;;;;;;;28.71;57.80;101359.59;4977866;28;68918;-40
2022/02/24 00:58:45;;;;;;;;;;;;;;;28.74;57.54;101357.34;4979200;28;66526;-41
2022/02/24 01:01:16;;;;;;;;;;;;;;;28.80;56.87;101366.53;4978972;28;70022;-40
2022/02/24 01:03:46;;;;;;;;;;;;;;;28.82;56.72;101369.88;4978918;28;66664;-41
2022/02/24 01:06:18;;;;;;;;;;;;;;;28.86;56.31;101368.47;4976797;28;69337;-40
2022/02/24 01:08:48;;;;;;;;;;;;;;;28.90;56.08;101372.44;4978230;28;65722;-40
2022/02/24 01:11:19;;;;;;;;;;;;;;;28.93;55.86;101373.91;4990432;27;70073;-41
2022/02/24 01:13:49;;;;;;;;;;;;;;;28.95;55.85;101378.09;4976226;28;65741;-41
2022/02/24 01:16:19;;;;;;;;;;;;;;;29.00;55.43;101387.44;4976088;28;69778;-41
2022/02/24 01:18:49;;;;;;;;;;;;;;;29.00;55.31;101392.84;4978295;28;66804;-40
2022/02/24 01:21:21;;;;;;;;;;;;;;;29.03;55.51;101403.25;4977686;27;70634;-40
2022/02/24 01:23:51;;;;;;;;;;;;;;;29.06;55.34;101402.91;4979863;28;66560;-41
2022/02/24 01:26:23;;;;;;;;;;;;;;;29.09;54.77;101413.34;4969550;28;68889;-41
2022/02/24 01:28:53;;;;;;;;;;;;;;;29.10;54.63;101410.44;4974673;28;65276;-41
2022/02/24 01:31:24;;;;;;;;;;;;;;;29.13;54.95;101420.00;4975680;28;69683;-42
2022/02/24 01:33:54;;;;;;;;;;;;;;;29.14;54.47;101421.66;4978131;28;66272;-42
2022/02/24 01:36:27;;;;;;;;;;;;;;;29.16;54.40;101422.31;4976171;28;69710;-41
2022/02/24 01:38:57;;;;;;;;;;;;;;;29.18;54.35;101425.66;4979438;28;65906;-40
2022/02/24 01:41:27;;;;;;;;;;;;;;;29.20;54.39;101426.31;4967051;28;70512;-42
2022/02/24 01:44:06;;;;;;;;;;;;;;;29.22;54.48;101435.03;4976289;28;65709;-41
2022/02/24 01:46:36;;;;;;;;;;;;;;;29.24;54.38;101432.97;4976756;28;69332;-41
2022/02/24 01:49:06;;;;;;;;;;;;;;;29.26;54.29;101430.94;4975412;28;66259;-41
2022/02/24 01:51:37;;;;;;;;;;;;;;;29.27;54.21;101432.59;4978611;28;70392;-41
2022/02/24 01:54:07;;;;;;;;;;;;;;;29.30;53.69;101426.78;4978951;28;65737;-43
2022/02/24 01:56:37;;;;;;;;;;;;;;;29.31;53.97;101430.31;4960277;28;69370;-42
2022/02/24 01:59:06;;;;;;;;;;;;;;;29.32;53.95;101423.91;4978020;28;66232;-42
2022/02/24 02:01:36;;;;;;;;;;;;;;;29.35;53.74;101424.34;4978885;28;69687;-41
2022/02/24 02:04:06;;;;;;;;;;;;;;;29.36;53.13;101415.22;4976330;28;66321;-40
2022/02/24 02:06:37;;;;;;;;;;;;;;;29.38;53.11;101423.94;4991599;28;70870;-42
2022/02/24 02:09:09;;;;;;;;;;;;;;;29.40;53.57;101424.59;4979375;28;65361;-39
2022/02/24 02:11:39;;;;;;;;;;;;;;;29.43;53.13;101430.63;4976296;28;69729;-40
2022/02/24 02:14:10;;;;;;;;;;;;;;;29.44;53.49;101435.00;4995654;27;66287;-40
2022/02/24 02:16:46;;;;;;;;;;;;;;;29.46;53.29;101441.06;4994972;28;70569;-41
2022/02/24 02:19:16;;;;;;;;;;;;;;;29.48;53.33;101436.28;4994434;27;66328;-40
2022/02/24 02:21:47;;;;;;;;;;;;;;;29.50;52.78;101436.91;4996512;27;70383;-40
2022/02/24 02:24:16;;;;;;;;;;;;;;;29.52;52.67;101429.44;4994867;28;65552;-42
2022/02/24 02:26:49;;;;;;;;;;;;;;;29.54;52.82;101427.38;4995539;27;70365;-42
2022/02/24 02:29:19;;;;;;;;;;;;;;;29.55;52.45;101418.22;4994266;27;66156;-41
2022/02/24 02:31:49;;;;;;;;;;;;;;;29.57;52.74;101416.16;4995110;27;70096;-40
2022/02/24 02:34:19;;;;;;;;;;;;;;;29.59;52.52;101411.41;4994344;28;65660;-40
2022/02/24 02:36:49;;;;;;;;;;;;;;;29.61;52.24;101402.06;4996397;27;70138;-39
2022/02/24 02:39:19;;;;;;;;;;;;;;;29.64;52.15;101403.53;4992305;28;65442;-40
2022/02/24 02:41:49;;;;;;;;;;;;;;;29.67;52.16;101405.00;4986882;28;70764;-40
2022/02/24 02:44:18;;;;;;;;;;;;;;;29.69;52.12;101411.88;4994243;27;66513;-40
2022/02/24 02:46:48;;;;;;;;;;;;;;;29.71;51.93;101407.13;4996206;27;69454;-41
2022/02/24 02:49:18;;;;;;;;;;;;;;;29.73;51.81;101405.06;4992687;27;66757;-41
2022/02/24 02:51:49;;;;;;;;;;;;;;;29.74;52.15;101395.91;4982773;27;69911;-40
2022/02/24 02:54:20;;;;;;;;;;;;;;;29.77;52.47;101402.78;4992643;28;66915;-42
2022/02/24 02:56:51;;;;;;;;;;;;;;;29.78;51.90;101409.84;4994261;27;69816;-42
2022/02/24 02:59:21;;;;;;;;;;;;;;;29.79;52.18;101415.06;4993926;27;68172;-42
2022/02/24 03:01:51;;;;;;;;;;;;;;;29.82;52.19;101417.38;4981830;27;69387;-40
2022/02/24 03:04:22;;;;;;;;;;;;;;;29.83;52.24;101405.50;4995325;27;65365;-41
2022/02/24 03:06:52;;;;;;;;;;;;;;;29.87;51.73;101405.97;4972809;28;68802;-40
2022/02/24 03:09:22;;;;;;;;;;;;;;;29.89;52.08;101405.75;4958082;28;66209;-41
2022/02/24 03:11:51;;;;;;;;;;;;;;;29.91;51.59;101400.97;4959477;28;69789;-41
2022/02/24 03:14:22;;;;;;;;;;;;;;;29.93;51.87;101388.09;4975893;28;65552;-40
2022/02/24 03:16:51;;;;;;;;;;;;;;;29.96;51.78;101393.09;4975925;28;69922;-45
2022/02/24 03:19:22;;;;;;;;;;;;;;;29.98;51.91;101380.22;4977675;28;67130;-41
2022/02/24 03:21:53;;;;;;;;;;;;;;;30.00;52.00;101378.13;4978668;27;69688;-42
2022/02/24 03:24:23;;;;;;;;;;;;;;;30.02;51.54;101378.75;4974794;28;66814;-43
2022/02/24 03:26:54;;;;;;;;;;;;;;;30.04;51.83;101379.41;4978084;28;70300;-43
2022/02/24 03:29:24;;;;;;;;;;;;;;;30.06;51.78;101374.59;4977839;28;66604;-40
2022/02/24 03:31:55;;;;;;;;;;;;;;;30.09;51.22;101378.78;4962686;28;69346;-41
2022/02/24 03:34:25;;;;;;;;;;;;;;;30.11;51.24;101366.72;4963576;28;66381;-41
2022/02/24 03:36:57;;;;;;;;;;;;;;;30.13;51.70;101372.75;4977026;28;69604;-41
2022/02/24 03:39:26;;;;;;;;;;;;;;;30.15;51.17;101370.69;4973491;28;65796;-41
2022/02/24 03:41:58;;;;;;;;;;;;;;;30.19;51.67;101366.53;4958210;28;69179;-41
2022/02/24 03:44:28;;;;;;;;;;;;;;;30.22;51.15;101376.97;4977768;28;66770;-41
2022/02/24 03:46:59;;;;;;;;;;;;;;;30.23;51.17;101373.25;4964754;28;69800;-41
2022/02/24 03:49:45;;;;;;;;;;;;;;;30.27;51.64;101365.53;4990038;28;66138;-42
2022/02/24 03:52:16;;;;;;;;;;;;;;;30.30;51.18;101370.53;4974996;28;69723;-41
2022/02/24 03:54:46;;;;;;;;;;;;;;;30.31;50.87;101368.66;4978758;27;66569;-41
2022/02/24 03:57:17;;;;;;;;;;;;;;;30.34;51.29;101368.25;4976801;28;70576;-41
2022/02/24 03:59:47;;;;;;;;;;;;;;;30.36;51.43;101361.59;4984600;28;66583;-42
2022/02/24 04:02:17;;;;;;;;;;;;;;;30.39;50.93;101365.78;4975457;28;69827;-41
2022/02/24 04:04:47;;;;;;;;;;;;;;;30.40;50.84;101365.56;4977593;28;65803;-40
2022/02/24 04:07:18;;;;;;;;;;;;;;;30.43;50.99;101357.03;4972285;28;70045;-40
2022/02/24 04:09:48;;;;;;;;;;;;;;;30.46;51.17;101344.97;4981714;28;66702;-40
2022/02/24 04:12:18;;;;;;;;;;;;;;;30.47;50.68;101336.63;4966090;28;69167;-40
2022/02/24 04:14:48;;;;;;;;;;;;;;;30.50;50.59;101329.97;4978828;28;66701;-40
2022/02/24 04:17:19;;;;;;;;;;;;;;;30.53;50.70;101328.72;4980788;28;70682;-40
2022/02/24 04:19:48;;;;;;;;;;;;;;;30.56;51.20;101326.44;4979516;28;66047;-41
2022/02/24 04:22:18;;;;;;;;;;;;;;;30.58;51.01;101312.69;4976453;28;69643;-41
2022/02/24 04:24:48;;;;;;;;;;;;;;;30.60;50.87;101307.91;4990280;27;66312;-40
2022/02/24 04:27:18;;;;;;;;;;;;;;;30.61;50.93;101307.69;4981131;28;69437;-42
2022/02/24 04:29:49;;;;;;;;;;;;;;;30.61;51.42;101304.97;4978739;28;66597;-40
2022/02/24 04:32:19;;;;;;;;;;;;;;;30.63;51.13;101300.19;4964405;28;70265;-41
2022/02/24 04:34:48;;;;;;;;;;;;;;;30.65;51.36;101305.41;4982697;27;66105;-41
2022/02/24 04:37:19;;;;;;;;;;;;;;;30.64;50.82;101293.72;4978467;28;69773;-41
2022/02/24 04:39:49;;;;;;;;;;;;;;;30.66;51.17;101275.41;4974182;28;66710;-40
2022/02/24 04:42:19;;;;;;;;;;;;;;;30.66;50.79;101267.28;4975199;28;69937;-40
2022/02/24 04:44:49;;;;;;;;;;;;;;;30.67;51.43;101266.25;4971342;28;66774;-41
2022/02/24 04:47:19;;;;;;;;;;;;;;;30.66;51.56;101253.75;4960439;28;70339;-40
2022/02/24 04:49:49;;;;;;;;;;;;;;;30.67;51.29;101262.69;4979506;28;66438;-41
2022/02/24 04:52:19;;;;;;;;;;;;;;;30.69;51.18;101261.44;4978984;28;70717;-40
2022/02/24 04:54:49;;;;;;;;;;;;;;;30.68;51.33;101257.09;5056759;27;65329;-41
2022/02/24 04:57:23;;;;;;;;;;;;;;;30.70;51.31;101260.41;4983426;28;69878;-41
2022/02/24 04:59:53;;;;;;;;;;;;;;;30.70;50.97;101255.00;4992905;28;65687;-41
2022/02/24 05:02:23;;;;;;;;;;;;;;;30.72;51.56;101252.91;4966207;28;69993;-40
2022/02/24 05:04:53;;;;;;;;;;;;;;;30.73;50.91;101243.75;4970577;28;65441;-41
2022/02/24 05:07:24;;;;;;;;;;;;;;;30.75;51.22;101245.41;4969602;28;68915;-41
2022/02/24 05:09:54;;;;;;;;;;;;;;;30.75;51.18;101229.16;4977024;28;65447;-41
2022/02/24 05:12:24;;;;;;;;;;;;;;;30.76;51.56;101225.38;4990015;27;69664;-40
2022/02/24 05:14:53;;;;;;;;;;;;;;;30.78;51.05;101220.59;4978198;28;65406;-41
2022/02/24 05:17:24;;;;;;;;;;;;;;;30.80;51.43;101221.25;4964346;28;70033;-42
2022/02/24 05:19:54;;;;;;;;;;;;;;;30.81;51.44;101222.91;4975984;28;65504;-45
2022/02/24 05:22:24;;;;;;;;;;;;;;;30.84;51.19;101211.66;4978448;28;69785;-40
2022/02/24 05:24:54;;;;;;;;;;;;;;;30.86;50.94;101209.56;4979512;28;66051;-41
2022/02/24 05:27:27;;;;;;;;;;;;;;;30.88;51.29;101180.41;4977556;28;69776;-41
2022/02/24 05:29:56;;;;;;;;;;;;;;;30.91;50.97;101185.41;4979450;28;66515;-41
2022/02/24 05:32:26;;;;;;;;;;;;;;;30.92;50.51;101187.03;4977285;28;69814;-42
2022/02/24 05:34:56;;;;;;;;;;;;;;;30.92;51.12;101182.50;4977029;28;66525;-40
2022/02/24 05:37:27;;;;;;;;;;;;;;;30.95;51.15;101175.78;4961222;28;70073;-40
2022/02/24 05:39:56;;;;;;;;;;;;;;;30.97;50.97;101171.00;4967621;28;65529;-41
2022/02/24 05:42:27;;;;;;;;;;;;;;;30.99;51.20;101176.22;4979217;28;69951;-41
2022/02/24 05:44:57;;;;;;;;;;;;;;;31.00;50.97;101165.13;4979289;28;65417;-41
2022/02/24 05:47:27;;;;;;;;;;;;;;;31.03;50.54;101155.75;4977237;28;70494;-41
2022/02/24 05:49:57;;;;;;;;;;;;;;;31.04;50.90;101152.84;4976312;28;65347;-39
2022/02/24 05:52:26;;;;;;;;;;;;;;;31.07;50.97;101146.16;4976407;28;70608;-41
2022/02/24 05:54:56;;;;;;;;;;;;;;;31.09;50.38;101139.50;4965179;28;66146;-41
2022/02/24 05:57:27;;;;;;;;;;;;;;;31.11;50.37;101123.81;4977504;28;70926;-40
2022/02/24 05:59:57;;;;;;;;;;;;;;;31.13;50.23;101116.31;4961257;28;66744;-40
2022/02/24 06:02:26;;;;;;;;;;;;;;;31.16;50.98;101118.59;4971690;28;68964;-41
2022/02/24 06:04:56;;;;;;;;;;;;;;;31.20;51.02;101107.31;4986239;28;65947;-41
2022/02/24 06:07:26;;;;;;;;;;;;;;;31.23;50.52;101093.31;4971032;28;69562;-41
2022/02/24 06:09:56;;;;;;;;;;;;;;;31.24;50.29;101086.88;4965832;28;66712;-41
2022/02/24 06:12:26;;;;;;;;;;;;;;;31.26;50.45;101084.75;4978131;28;69900;-40
2022/02/24 06:14:56;;;;;;;;;;;;;;;31.29;50.67;101082.47;4962100;28;65494;-41
2022/02/24 06:17:26;;;;;;;;;;;;;;;31.32;50.26;101078.50;4977742;28;69290;-40
2022/02/24 06:19:55;;;;;;;;;;;;;;;31.35;50.11;101067.22;4990152;28;66568;-40
2022/02/24 06:22:25;;;;;;;;;;;;;;;31.37;49.93;101059.69;4965881;28;69555;-41
2022/02/24 06:24:55;;;;;;;;;;;;;;;31.39;50.04;101061.13;4984979;28;66090;-41
2022/02/24 06:27:25;;;;;;;;;;;;;;;31.42;50.22;101059.03;4976424;28;69877;-41
2022/02/24 06:29:56;;;;;;;;;;;;;;;31.43;50.59;101048.00;4977184;28;65543;-41
2022/02/24 06:32:26;;;;;;;;;;;;;;;31.46;50.46;101052.97;4976741;28;69965;-40
2022/02/24 06:34:57;;;;;;;;;;;;;;;31.48;50.26;101042.75;4975967;28;66398;-41
2022/02/24 06:37:30;;;;;;;;;;;;;;;31.50;49.98;101032.50;4964543;28;70204;-42
2022/02/24 06:39:59;;;;;;;;;;;;;;;31.51;50.00;101028.75;4970972;28;65633;-41
2022/02/24 06:42:29;;;;;;;;;;;;;;;31.53;50.02;101034.75;4973644;28;70484;-40
2022/02/24 06:44:59;;;;;;;;;;;;;;;31.55;50.08;101029.13;4978903;28;66226;-41
2022/02/24 06:47:29;;;;;;;;;;;;;;;31.56;50.40;101015.34;4978064;28;69090;-41
2022/02/24 06:50:01;;;;;;;;;;;;;;;31.57;49.98;101010.75;4978051;28;66272;-40
2022/02/24 06:52:32;;;;;;;;;;;;;;;31.59;50.50;101009.50;4978590;28;71000;-41
2022/02/24 06:55:03;;;;;;;;;;;;;;;31.60;50.10;101010.31;4984338;28;66005;-41
2022/02/24 06:57:42;;;;;;;;;;;;;;;31.60;50.44;101011.13;4996369;28;69795;-41
2022/02/24 07:00:12;;;;;;;;;;;;;;;31.61;49.91;101009.25;4976903;28;66581;-42
2022/02/24 07:02:42;;;;;;;;;;;;;;;31.61;50.10;101011.97;4980724;28;69302;-40
2022/02/24 07:05:13;;;;;;;;;;;;;;;31.63;50.04;101000.91;5041408;28;66880;-42
2022/02/24 07:07:42;;;;;;;;;;;;;;;31.64;50.19;100995.25;4977915;28;69908;-41
2022/02/24 07:10:15;;;;;;;;;;;;;;;31.64;50.15;100995.25;4974300;28;66508;-40
2022/02/24 07:12:45;;;;;;;;;;;;;;;31.67;49.83;100988.53;4977793;28;69923;-40
2022/02/24 07:15:15;;;;;;;;;;;;;;;31.69;50.04;100983.75;4981650;28;66932;-41
2022/02/24 07:17:46;;;;;;;;;;;;;;;31.70;50.17;100978.06;4976404;28;69449;-41
2022/02/24 07:20:16;;;;;;;;;;;;;;;31.72;49.88;100980.56;4977969;28;65553;-41
2022/02/24 07:22:46;;;;;;;;;;;;;;;31.75;49.77;100980.13;4977741;28;70706;-41
2022/02/24 07:25:16;;;;;;;;;;;;;;;31.77;49.87;100967.19;4976277;28;66463;-41
2022/02/24 07:27:46;;;;;;;;;;;;;;;31.79;49.76;100954.22;4979527;27;69655;-40
2022/02/24 07:30:16;;;;;;;;;;;;;;;31.81;50.26;100952.09;4977714;28;66334;-41
2022/02/24 07:32:46;;;;;;;;;;;;;;;31.82;50.18;100953.78;4975735;28;69861;-41
2022/02/24 07:35:16;;;;;;;;;;;;;;;31.86;49.88;100954.16;4976592;28;65672;-42
2022/02/24 07:37:46;;;;;;;;;;;;;;;31.89;49.60;100948.28;4978010;27;70348;-42
2022/02/24 07:40:15;;;;;;;;;;;;;;;31.90;49.59;100939.91;4963449;28;65931;-41
2022/02/24 07:42:45;;;;;;;;;;;;;;;31.93;50.05;100944.06;4973615;28;69931;-41
2022/02/24 07:45:15;;;;;;;;;;;;;;;31.94;49.72;100930.28;4965404;28;65997;-41
2022/02/24 07:47:46;;;;;;;;;;;;;;;31.96;50.04;100933.63;4973767;28;70400;-41
2022/02/24 07:50:15;;;;;;;;;;;;;;;31.98;49.58;100936.94;4977551;28;66680;-41
2022/02/24 07:52:46;;;;;;;;;;;;;;;31.99;49.42;100933.16;4976664;28;70472;-40
2022/02/24 07:55:17;;;;;;;;;;;;;;;32.00;49.81;100921.25;4976803;28;65446;-40
2022/02/24 07:57:46;;;;;;;;;;;;;;;32.01;49.41;100930.19;4978364;27;69913;-44
2022/02/24 08:00:18;;;;;;;;;;;;;;;32.01;49.50;100928.34;4977021;28;64850;-41
2022/02/24 08:02:51;;;;;;;;;;;;;;;32.03;49.53;100928.09;4976504;28;70184;-40
2022/02/24 08:05:21;;;;;;;;;;;;;;;32.02;49.94;100924.56;4974188;28;65507;-41
2022/02/24 08:07:51;;;;;;;;;;;;;;;31.93;49.58;100901.50;4975937;28;69702;-40
2022/02/24 08:10:21;;;;;;;;;;;;;;;32.04;49.90;100925.16;4976972;28;66203;-41
2022/02/24 08:12:51;;;;;;;;;;;;;;;32.04;49.82;100929.78;4977699;28;69915;-41
2022/02/24 08:15:22;;;;;;;;;;;;;;;32.04;49.87;100925.16;4975985;28;66597;-40
2022/02/24 08:17:52;;;;;;;;;;;;;;;32.04;49.80;100908.88;4976765;28;70400;-40
2022/02/24 08:20:23;;;;;;;;;;;;;;;32.05;49.51;100917.84;4975893;28;66260;-41
2022/02/24 08:22:53;;;;;;;;;;;;;;;32.05;49.40;100913.25;4973408;28;69668;-41
2022/02/24 08:25:24;;;;;;;;;;;;;;;32.07;49.66;100917.59;4973541;28;65877;-41
2022/02/24 08:27:57;;;;;;;;;;;;;;;32.04;49.78;100914.31;4977774;28;69898;-41
2022/02/24 08:30:27;;;;;;;;;;;;;;;32.04;49.73;100919.75;4974644;28;65990;-41
2022/02/24 08:32:57;;;;;;;;;;;;;;;32.05;49.80;100915.97;4976212;28;69143;-41
2022/02/24 08:35:26;;;;;;;;;;;;;;;32.05;50.14;100921.38;4975618;28;66264;-41
2022/02/24 08:37:56;;;;;;;;;;;;;;;32.05;49.89;100917.84;4974938;28;70430;-41
2022/02/24 08:40:27;;;;;;;;;;;;;;;32.04;50.00;100932.50;4963087;28;66086;-41
2022/02/24 08:42:59;;;;;;;;;;;;;;;32.04;49.82;100936.03;4962433;28;69859;-40
2022/02/24 08:45:32;;;;;;;;;;;;;;;32.04;50.04;100941.44;4975098;28;64933;-41
2022/02/24 08:48:02;;;;;;;;;;;;;;;32.03;49.66;100950.63;4978781;27;70417;-41
2022/02/24 08:50:32;;;;;;;;;;;;;;;32.03;49.98;100950.63;4974219;28;66668;-41
2022/02/24 08:53:09;;;;;;;;;;;;;;;32.02;49.99;100951.69;4969914;28;70812;-40
2022/02/24 08:55:39;;;;;;;;;;;;;;;32.01;49.74;100947.34;4973800;27;65660;-41
2022/02/24 08:58:09;;;;;;;;;;;;;;;32.02;49.89;100950.88;4976310;28;71462;-41
2022/02/24 09:00:45;;;;;;;;;;;;;;;32.02;50.26;100948.97;4967577;28;66068;-43
2022/02/24 09:03:15;;;;;;;;;;;;;;;32.00;49.76;100940.22;4966785;28;70250;-42
2022/02/24 09:05:46;;;;;;;;;;;;;;;32.02;50.23;100942.72;4978002;28;66744;-41
2022/02/24 09:08:15;;;;;;;;;;;;;;;32.03;49.98;100949.81;4974805;28;69086;-41
2022/02/24 09:10:45;;;;;;;;;;;;;;;32.02;49.89;100948.97;4978214;28;67105;-40
2022/02/24 09:13:15;;;;;;;;;;;;;;;32.03;50.20;100950.63;4946350;28;70288;-41
2022/02/24 09:15:45;;;;;;;;;;;;;;;32.04;50.11;100959.63;4966165;28;66459;-41
2022/02/24 09:18:15;;;;;;;;;;;;;;;32.03;49.99;100961.47;4977999;28;70144;-41
2022/02/24 09:20:45;;;;;;;;;;;;;;;32.03;50.18;100964.19;4977677;28;66627;-41
2022/02/24 09:23:15;;;;;;;;;;;;;;;32.04;50.37;100967.75;4960781;28;69085;-41
2022/02/24 09:25:46;;;;;;;;;;;;;;;32.02;50.28;100969.88;4957229;28;66259;-41
2022/02/24 09:28:16;;;;;;;;;;;;;;;32.02;50.35;100969.88;4969519;28;69538;-41
2022/02/24 09:30:46;;;;;;;;;;;;;;;32.02;50.15;100986.97;4967003;28;66617;-41
2022/02/24 09:33:16;;;;;;;;;;;;;;;32.01;50.27;100990.75;4986994;27;69607;-42
2022/02/24 09:35:45;;;;;;;;;;;;;;;32.00;50.01;100983.63;4991400;28;66808;-41
2022/02/24 09:38:16;;;;;;;;;;;;;;;31.99;50.36;100970.31;4969115;28;69492;-41
2022/02/24 09:40:51;;;;;;;;;;;;;;;31.98;50.17;100969.50;4963478;28;66978;-41
2022/02/24 09:43:29;;;;;;;;;;;;;;;31.98;50.18;100972.22;4957189;28;69840;-40
2022/02/24 09:45:59;;;;;;;;;;;;;;;31.98;50.19;100969.50;4961277;28;66885;-42
2022/02/24 09:48:31;;;;;;;;;;;;;;;31.98;50.05;100969.50;4966135;28;69896;-41
2022/02/24 09:51:03;;;;;;;;;;;;;;;32.00;50.06;100970.06;4977430;28;66734;-41
2022/02/24 09:53:34;;;;;;;;;;;;;;;31.98;50.60;100974.91;4967832;28;69826;-42
2022/02/24 09:56:05;;;;;;;;;;;;;;;31.98;50.25;100964.06;4975066;28;65180;-48
2022/02/24 09:58:35;;;;;;;;;;;;;;;31.98;50.57;100974.06;4960431;28;71331;-41
2022/02/24 10:01:05;;;;;;;;;;;;;;;31.98;50.26;100982.22;4980365;27;66938;-41
2022/02/24 10:03:41;;;;;;;;;;;;;;;31.97;50.60;100981.38;4978532;27;70551;-40
2022/02/24 10:06:13;;;;;;;;;;;;;;;31.97;50.60;100978.66;4964654;28;66037;-42
2022/02/24 10:08:44;;;;;;;;;;;;;;;31.97;50.49;100978.66;4982578;28;69503;-41
2022/02/24 10:11:21;;;;;;;;;;;;;;;31.97;50.77;100978.66;4985246;28;65484;-41
2022/02/24 10:14:09;;;;;;;;;;;;;;;31.95;50.74;100986.19;4980946;27;70653;-41
2022/02/24 10:16:59;;;;;;;;;;;;;;;31.95;50.70;100983.47;4982471;28;66289;-48
2022/02/24 10:19:40;;;;;;;;;;;;;;;31.94;50.81;100979.13;4960267;28;70313;-41
2022/02/24 10:22:18;;;;;;;;;;;;;;;31.95;50.81;100979.94;4974465;28;65617;-41
2022/02/24 10:25:04;;;;;;;;;;;;;;;31.93;50.86;100982.03;4966226;28;69293;-42
2022/02/24 10:27:36;;;;;;;;;;;;;;;31.93;51.21;100987.47;4976217;28;66800;-40
2022/02/24 10:30:08;;;;;;;;;;;;;;;31.91;51.08;100979.56;4978013;28;70681;-41
2022/02/24 10:32:39;;;;;;;;;;;;;;;31.91;51.31;100985.00;4978005;28;66445;-41
2022/02/24 10:35:30;;;;;;;;;;;;;;;31.91;51.31;100979.56;4980166;28;69330;-40
2022/02/24 10:38:08;;;;;;;;;;;;;;;31.88;51.53;100974.56;4966530;28;66084;-41
2022/02/24 10:40:41;;;;;;;;;;;;;;;31.87;51.55;100978.31;4960997;28;69857;-41
2022/02/24 10:43:29;;;;;;;;;;;;;;;31.86;51.26;100971.25;4975870;28;65858;-40
2022/02/24 10:46:02;;;;;;;;;;;;;;;31.94;52.69;100981.84;4955720;28;69026;-41
2022/02/24 10:48:57;;;;;;;;;;;;;;;31.87;52.46;100983.75;4967158;28;66524;-43
2022/02/24 10:51:31;;;;;;;;;;;;;;;31.77;53.65;100997.84;4982817;28;69595;-42
2022/02/24 10:54:11;;;;;;;;;;;;;;;31.73;54.22;100993.94;4968356;28;66075;-42
2022/02/24 10:56:43;;;;;;;;;;;;;;;31.60;54.58;101005.72;4967084;28;70427;-41
2022/02/24 10:59:29;;;;;;;;;;;;;;;31.60;54.69;101000.28;4952038;28;66091;-42
2022/02/24 11:01:59;;;;;;;;;;;;;;;31.55;55.02;101002.00;4970411;28;70036;-41
2022/02/24 11:04:28;;;;;;;;;;;;;;;31.37;54.79;100986.50;4969979;28;66218;-40
2022/02/24 11:06:58;;;;;;;;;;;;;;;31.39;55.24;101003.38;4975544;28;70251;-41
2022/02/24 11:09:29;;;;;;;;;;;;;;;31.41;54.94;101012.13;4986826;28;66046;-41
2022/02/24 11:12:07;;;;;;;;;;;;;;;31.45;54.97;101005.22;4967115;28;69754;-42
2022/02/24 11:14:39;;;;;;;;;;;;;;;31.52;54.78;101013.31;4985843;28;66208;-43
2022/02/24 11:17:11;;;;;;;;;;;;;;;31.56;54.88;101009.91;4974648;28;70165;-42
2022/02/24 11:19:43;;;;;;;;;;;;;;;31.64;54.81;101021.53;4975296;28;65292;-41
2022/02/24 11:22:13;;;;;;;;;;;;;;;31.67;54.61;101034.66;4986806;27;70207;-41
2022/02/24 11:24:43;;;;;;;;;;;;;;;31.71;54.02;101034.00;4957082;28;66047;-44
2022/02/24 11:27:20;;;;;;;;;;;;;;;31.72;53.65;101034.81;4972350;28;68823;-42
2022/02/24 11:29:54;;;;;;;;;;;;;;;31.74;53.53;101046.28;4973369;28;66526;-41
2022/02/24 11:32:24;;;;;;;;;;;;;;;31.76;52.80;101046.88;4970449;28;69314;-42
2022/02/24 11:35:08;;;;;;;;;;;;;;;31.76;53.58;101053.16;4970642;28;65500;-42
2022/02/24 11:37:42;;;;;;;;;;;;;;;31.77;53.64;101048.56;4972498;28;70405;-40
2022/02/24 11:40:18;;;;;;;;;;;;;;;31.77;53.69;101037.69;4974736;28;66667;-41
2022/02/24 11:43:06;;;;;;;;;;;;;;;31.77;53.53;101033.09;4973603;28;69724;-43
2022/02/24 11:45:38;;;;;;;;;;;;;;;31.77;54.04;101043.13;4977483;28;66214;-41
2022/02/24 11:48:10;;;;;;;;;;;;;;;31.77;53.65;101053.97;4975769;28;70052;-42
2022/02/24 11:50:41;;;;;;;;;;;;;;;31.78;53.56;101063.75;4974344;28;66959;-42
2022/02/24 11:53:31;;;;;;;;;;;;;;;31.77;51.66;101072.97;4973860;28;69800;-40
2022/02/24 11:56:14;;;;;;;;;;;;;;;31.75;50.60;101083.19;4956653;28;65709;-43
2022/02/24 11:58:47;;;;;;;;;;;;;;;31.60;52.72;101078.09;4972145;28;69617;-42
2022/02/24 12:01:34;;;;;;;;;;;;;;;31.44;52.80;101071.34;4971219;28;66048;-42
2022/02/24 12:04:21;;;;;;;;;;;;;;;31.30;54.20;101075.16;4973203;28;70762;-43
2022/02/24 12:06:52;;;;;;;;;;;;;;;31.19;54.70;101073.97;4965946;28;66171;-41
2022/02/24 12:09:23;;;;;;;;;;;;;;;31.06;55.87;101066.75;4973669;28;69678;-41
2022/02/24 12:12:09;;;;;;;;;;;;;;;30.99;55.53;101079.50;4971666;28;65762;-41
2022/02/24 12:14:39;;;;;;;;;;;;;;;30.86;54.13;101084.97;4974411;28;69335;-44
2022/02/24 12:17:15;;;;;;;;;;;;;;;30.81;54.02;101082.91;4973250;28;65983;-43
2022/02/24 12:19:49;;;;;;;;;;;;;;;30.82;54.55;101083.78;4952903;28;69134;-43
2022/02/24 12:22:30;;;;;;;;;;;;;;;30.72;54.73;101081.47;4966193;28;64782;-43
2022/02/24 12:25:13;;;;;;;;;;;;;;;30.75;52.56;101088.34;4983562;28;69865;-43
2022/02/24 12:27:46;;;;;;;;;;;;;;;30.68;53.31;101094.63;4958546;28;66465;-43
2022/02/24 12:30:21;;;;;;;;;;;;;;;30.66;53.29;101106.69;4980386;28;70480;-42
2022/02/24 12:32:56;;;;;;;;;;;;;;;30.59;53.95;101112.16;4980775;28;66875;-43
2022/02/24 12:35:26;;;;;;;;;;;;;;;30.60;53.01;101108.38;4976261;28;69417;-42
2022/02/24 12:37:56;;;;;;;;;;;;;;;30.58;52.15;101115.88;4979776;27;66463;-43
2022/02/24 12:40:38;;;;;;;;;;;;;;;30.59;52.03;101117.56;4974733;27;69511;-43
2022/02/24 12:43:10;;;;;;;;;;;;;;;30.56;52.90;101123.38;4950962;28;67554;-42
2022/02/24 12:45:47;;;;;;;;;;;;;;;30.55;53.34;101129.84;4985545;27;70772;-42
2022/02/24 12:48:18;;;;;;;;;;;;;;;30.50;52.77;101135.06;4975479;28;66255;-45
2022/02/24 12:50:50;;;;;;;;;;;;;;;30.49;52.64;101136.94;4975619;28;70267;-41
2022/02/24 12:53:20;;;;;;;;;;;;;;;30.51;52.47;101161.09;4979285;28;65438;-42
2022/02/24 12:55:51;;;;;;;;;;;;;;;30.47;51.89;101152.56;4977400;28;69794;-41
2022/02/24 12:58:28;;;;;;;;;;;;;;;30.44;51.47;101163.81;4991233;27;67396;-42